Terminal Aerodrome Forecast
Issued by NWS Sterling, VA

Current Version | Previous Version | Graphics & Text | Print | Product List | Glossary On
Versions: 1 2 3 4 5 6 7 8 9 10 11 12 13 14 15 16 17 18 19 20 21 22 23 24 25 26 27 28
176
FTUS41 KLWX 230047 AAA
TAFIAD
TAF AMD
KIAD 230047Z 2301/2406 34007KT 4SM -RA BR BKN035
     FM230300 VRB03KT 5SM BR OVC025
     FM231000 VRB04KT 2SM BR BKN008
     FM231500 34007KT P6SM BKN050
     FM232100 33007KT P6SM -SHRA SCT035 BKN090
     FM240100 VRB04KT P6SM SCT100=

USA.gov is the U.S. government's official web portal to all federal, state and local government web resources and services.